Observation data for Wolfforth on 04/07/2020      Previous  Date  Next       Current Mesonet Observations  Soil Data  Daily Summary Page  Observations in Plain Language
KWOS 070500Z 20012KT 17/12 A2999 RMK A01 T01720118  RH  073%=      5-min Rain = 0
KWOS 070505Z 20012KT 17/12 A2999 RMK A01 T01720117  RH  073%=      5-min Rain = 0
KWOS 070510Z 20011KT 17/12 A2999 RMK A01 T01720116  RH  073%=      5-min Rain = 0
KWOS 070515Z 20010KT 17/12 A2999 RMK A01 T01710115  RH  072%=      5-min Rain = 0
KWOS 070520Z 20010KT 17/11 A2999 RMK A01 T01710114  RH  072%=      5-min Rain = 0
KWOS 070525Z 20011KT 17/11 A2999 RMK A01 T01690113  RH  072%=      5-min Rain = 0
KWOS 070530Z 20011KT 17/11 A2999 RMK A01 T01680113  RH  073%=      5-min Rain = 0
KWOS 070535Z 20011KT 17/11 A2999 RMK A01 T01680113  RH  073%=      5-min Rain = 0
KWOS 070540Z 20010KT 17/11 A2999 RMK A01 T01660112  RH  073%=      5-min Rain = 0
KWOS 070545Z 20010KT 17/11 A2999 RMK A01 T01650112  RH  073%=      5-min Rain = 0
KWOS 070550Z 21009KT 16/11 A2999 RMK A01 T01640112  RH  074%=      5-min Rain = 0
KWOS 070555Z 21010KT 16/11 A2999 RMK A01 T01630112  RH  075%=      5-min Rain = 0
KWOS 070600Z 21009KT 16/11 A2999 RMK A01 T01620112  RH  075%=      5-min Rain = 0
KWOS 070605Z 21008KT 16/11 A2999 RMK A01 T01600112  RH  076%=      5-min Rain = 0
KWOS 070610Z 21008KT 16/11 A2999 RMK A01 T01590111  RH  076%=      5-min Rain = 0
KWOS 070615Z 21008KT 16/11 A2999 RMK A01 T01580110  RH  076%=      5-min Rain = 0
KWOS 070620Z 22008KT 16/11 A2999 RMK A01 T01560109  RH  076%=      5-min Rain = 0
KWOS 070625Z 22007KT 15/11 A2999 RMK A01 T01530108  RH  077%=      5-min Rain = 0
KWOS 070630Z 22007KT 15/11 A2999 RMK A01 T01510106  RH  077%=      5-min Rain = 0
KWOS 070635Z 22007KT 15/11 A2999 RMK A01 T01480105  RH  078%=      5-min Rain = 0
KWOS 070640Z 22006KT 15/10 A2999 RMK A01 T01460103  RH  078%=      5-min Rain = 0
KWOS 070645Z 22007KT 15/10 A2999 RMK A01 T01460101  RH  077%=      5-min Rain = 0
KWOS 070650Z 23007KT 15/10 A2999 RMK A01 T01480099  RH  075%=      5-min Rain = 0
KWOS 070655Z 23009KT 15/10 A2999 RMK A01 T01510097  RH  072%=      5-min Rain = 0
KWOS 070700Z 24009KT 15/10 A2999 RMK A01 T01530096  RH  071%=      5-min Rain = 0
KWOS 070705Z 24009KT 15/09 A2999 RMK A01 T01510094  RH  071%=      5-min Rain = 0
KWOS 070710Z 24009KT 15/09 A2999 RMK A01 T01500093  RH  071%=      5-min Rain = 0
KWOS 070715Z 23010KT 15/09 A2999 RMK A01 T01500092  RH  071%=      5-min Rain = 0
KWOS 070720Z 24010KT 15/09 A2999 RMK A01 T01490091  RH  070%=      5-min Rain = 0
KWOS 070725Z 24011KT 15/09 A2999 RMK A01 T01510090  RH  069%=      5-min Rain = 0
KWOS 070730Z 24010KT 15/09 A2998 RMK A01 T01500088  RH  069%=      5-min Rain = 0
KWOS 070735Z 24010KT 15/09 A2999 RMK A01 T01470088  RH  069%=      5-min Rain = 0
KWOS 070740Z 24010KT 15/09 A2998 RMK A01 T01460086  RH  070%=      5-min Rain = 0
KWOS 070745Z 24011KT 15/09 A2998 RMK A01 T01460085  RH  069%=      5-min Rain = 0
KWOS 070750Z 24010KT 15/08 A2998 RMK A01 T01450084  RH  069%=      5-min Rain = 0
KWOS 070755Z 24009KT 14/08 A2998 RMK A01 T01430083  RH  069%=      5-min Rain = 0
KWOS 070800Z 24009KT 14/08 A2998 RMK A01 T01400082  RH  070%=      5-min Rain = 0
KWOS 070805Z 23009KT 14/08 A2998 RMK A01 T01390082  RH  070%=      5-min Rain = 0
KWOS 070810Z 23007KT 14/08 A2998 RMK A01 T01370081  RH  071%=      5-min Rain = 0
KWOS 070815Z 23006KT 13/08 A2998 RMK A01 T01340079  RH  071%=      5-min Rain = 0
KWOS 070820Z 24006KT 13/08 A2998 RMK A01 T01310078  RH  072%=      5-min Rain = 0
KWOS 070825Z 24006KT 13/08 A2998 RMK A01 T01270076  RH  073%=      5-min Rain = 0
KWOS 070830Z 23006KT 12/08 A2998 RMK A01 T01230075  RH  074%=      5-min Rain = 0
KWOS 070835Z 23007KT 12/08 A2997 RMK A01 T01210075  RH  075%=      5-min Rain = 0
KWOS 070840Z 23007KT 12/08 A2997 RMK A01 T01210075  RH  075%=      5-min Rain = 0
KWOS 070845Z 24006KT 12/07 A2998 RMK A01 T01200074  RH  075%=      5-min Rain = 0
KWOS 070850Z 24007KT 12/07 A2998 RMK A01 T01180072  RH  075%=      5-min Rain = 0
KWOS 070855Z 24007KT 12/07 A2998 RMK A01 T01170071  RH  076%=      5-min Rain = 0
KWOS 070900Z 24007KT 11/07 A2997 RMK A01 T01140070  RH  076%=      5-min Rain = 0
KWOS 070905Z 24008KT 11/07 A2997 RMK A01 T01140071  RH  077%=      5-min Rain = 0
KWOS 070910Z 24008KT 11/07 A2997 RMK A01 T01140070  RH  076%=      5-min Rain = 0
KWOS 070915Z 24008KT 11/07 A2997 RMK A01 T01130070  RH  076%=      5-min Rain = 0
KWOS 070920Z 25008KT 11/07 A2997 RMK A01 T01140069  RH  076%=      5-min Rain = 0
KWOS 070925Z 25008KT 12/07 A2997 RMK A01 T01160068  RH  074%=      5-min Rain = 0
KWOS 070930Z 25008KT 12/07 A2997 RMK A01 T01170067  RH  073%=      5-min Rain = 0
KWOS 070935Z 25009KT 12/07 A2996 RMK A01 T01190066  RH  072%=      5-min Rain = 0
KWOS 070940Z 25009KT 12/07 A2996 RMK A01 T01210066  RH  071%=      5-min Rain = 0
KWOS 070945Z 25010KT 12/06 A2996 RMK A01 T01240064  RH  068%=      5-min Rain = 0
KWOS 070950Z 25009KT 13/06 A2996 RMK A01 T01250063  RH  068%=      5-min Rain = 0
KWOS 070955Z 25008KT 13/06 A2996 RMK A01 T01260062  RH  066%=      5-min Rain = 0
KWOS 071000Z 26009KT 13/06 A2996 RMK A01 T01270060  RH  065%=      5-min Rain = 0
KWOS 071005Z 26008KT 13/06 A2996 RMK A01 T01270057  RH  064%=      5-min Rain = 0
KWOS 071010Z 26009KT 13/06 A2996 RMK A01 T01270055  RH  063%=      5-min Rain = 0
KWOS 071015Z 25009KT 13/05 A2996 RMK A01 T01270052  RH  062%=      5-min Rain = 0
KWOS 071020Z 25010KT 13/05 A2995 RMK A01 T01280049  RH  060%=      5-min Rain = 0
KWOS 071025Z 26009KT 13/05 A2995 RMK A01 T01290048  RH  059%=      5-min Rain = 0
KWOS 071030Z 27008KT 13/05 A2996 RMK A01 T01290048  RH  059%=      5-min Rain = 0
KWOS 071035Z 27009KT 13/05 A2996 RMK A01 T01300047  RH  058%=      5-min Rain = 0
KWOS 071040Z 26009KT 13/05 A2996 RMK A01 T01310046  RH  058%=      5-min Rain = 0
KWOS 071045Z 26009KT 13/05 A2996 RMK A01 T01310046  RH  057%=      5-min Rain = 0
KWOS 071050Z 26009KT 13/05 A2996 RMK A01 T01320045  RH  057%=      5-min Rain = 0
KWOS 071055Z 25009KT 13/04 A2997 RMK A01 T01340044  RH  056%=      5-min Rain = 0
KWOS 071100Z 25007KT 13/05 A2997 RMK A01 T01330045  RH  056%=      5-min Rain = 0
KWOS 071105Z 24008KT 13/05 A2997 RMK A01 T01300046  RH  058%=      5-min Rain = 0
KWOS 071110Z 24009KT 13/05 A2997 RMK A01 T01290046  RH  058%=      5-min Rain = 0
KWOS 071115Z 24009KT 13/05 A2997 RMK A01 T01260046  RH  059%=      5-min Rain = 0
KWOS 071120Z 24009KT 12/05 A2998 RMK A01 T01240046  RH  060%=      5-min Rain = 0
KWOS 071125Z 24009KT 12/05 A2998 RMK A01 T01210046  RH  061%=      5-min Rain = 0
KWOS 071130Z 25009KT 12/05 A2998 RMK A01 T01200045  RH  062%=      5-min Rain = 0
KWOS 071135Z 25008KT 12/05 A2998 RMK A01 T01180045  RH  062%=      5-min Rain = 0
KWOS 071140Z 25009KT 12/05 A2997 RMK A01 T01170045  RH  062%=      5-min Rain = 0
KWOS 071145Z 25009KT 12/04 A2997 RMK A01 T01170044  RH  062%=      5-min Rain = 0
KWOS 071150Z 25009KT 12/04 A2997 RMK A01 T01180044  RH  062%=      5-min Rain = 0
KWOS 071155Z 25010KT 12/04 A2997 RMK A01 T01190044  RH  062%=      5-min Rain = 0
KWOS 071200Z 25010KT 12/05 A2997 RMK A01 T01210045  RH  061%=      5-min Rain = 0
KWOS 071205Z 25010KT 13/05 A2997 RMK A01 T01250045  RH  059%=      5-min Rain = 0
KWOS 071210Z 26010KT 13/04 A2998 RMK A01 T01280044  RH  058%=      5-min Rain = 0
KWOS 071215Z 26010KT 13/04 A2997 RMK A01 T01280043  RH  057%=      5-min Rain = 0
KWOS 071220Z 26010KT 13/04 A2997 RMK A01 T01270043  RH  057%=      5-min Rain = 0
KWOS 071225Z 26010KT 13/04 A2998 RMK A01 T01260042  RH  058%=      5-min Rain = 0
KWOS 071230Z 26010KT 13/04 A2998 RMK A01 T01260042  RH  058%=      5-min Rain = 0
KWOS 071235Z 26010KT 13/04 A2998 RMK A01 T01270042  RH  058%=      5-min Rain = 0
KWOS 071240Z 26010KT 13/04 A2997 RMK A01 T01280042  RH  057%=      5-min Rain = 0
KWOS 071245Z 25009KT 13/04 A2997 RMK A01 T01290043  RH  057%=      5-min Rain = 0
KWOS 071250Z 25008KT 13/04 A2998 RMK A01 T01290044  RH  058%=      5-min Rain = 0
KWOS 071255Z 24007KT 13/05 A2998 RMK A01 T01270045  RH  059%=      5-min Rain = 0
KWOS 071300Z 23008KT 13/05 A2999 RMK A01 T01250045  RH  060%=      5-min Rain = 0
KWOS 071305Z 23008KT 12/05 A2999 RMK A01 T01240046  RH  060%=      5-min Rain = 0
KWOS 071310Z 24008KT 13/05 A2998 RMK A01 T01250046  RH  060%=      5-min Rain = 0
KWOS 071315Z 25007KT 13/05 A2998 RMK A01 T01250047  RH  060%=      5-min Rain = 0
KWOS 071320Z 25008KT 13/05 A2999 RMK A01 T01280047  RH  059%=      5-min Rain = 0
KWOS 071325Z 25008KT 13/05 A2999 RMK A01 T01300047  RH  058%=      5-min Rain = 0
KWOS 071330Z 25009KT 13/05 A2999 RMK A01 T01320046  RH  057%=      5-min Rain = 0
KWOS 071335Z 26009KT 13/05 A2999 RMK A01 T01330045  RH  056%=      5-min Rain = 0
KWOS 071340Z 25009KT 13/04 A2999 RMK A01 T01340043  RH  055%=      5-min Rain = 0
KWOS 071345Z 24008KT 13/04 A2999 RMK A01 T01340043  RH  055%=      5-min Rain = 0
KWOS 071350Z 25009KT 14/05 A2999 RMK A01 T01370045  RH  055%=      5-min Rain = 0
KWOS 071355Z 26010KT 14/05 A2999 RMK A01 T01420045  RH  053%=      5-min Rain = 0
KWOS 071400Z 27010KT 15/04 A2999 RMK A01 T01480041  RH  050%=      5-min Rain = 0
KWOS 071405Z 28010KT 15/04 A2999 RMK A01 T01520041  RH  048%=      5-min Rain = 0
KWOS 071410Z 27011KT 16/04 A2999 RMK A01 T01560040  RH  047%=      5-min Rain = 0
KWOS 071415Z 26011KT 16/04 A2999 RMK A01 T01620037  RH  044%=      5-min Rain = 0
KWOS 071420Z 26010KT 17/04 A30 RMK A01 T01690035  RH  042%=      5-min Rain = 0
KWOS 071425Z 26010KT 18/03 A30 RMK A01 T01760034  RH  039%=      5-min Rain = 0
KWOS 071430Z 26010KT 18/03 A30 RMK A01 T01820032  RH  037%=      5-min Rain = 0
KWOS 071435Z 27010KT 19/03 A30 RMK A01 T01870030  RH  036%=      5-min Rain = 0
KWOS 071440Z 27011G16KT 19/03 A30 RMK A01 T01910027  RH  034%=      5-min Rain = 0
KWOS 071445Z 27011KT 20/02 A30 RMK A01 T01970023  RH  032%=      5-min Rain = 0
KWOS 071450Z 26012KT 20/02 A30 RMK A01 T02040016  RH  029%=      5-min Rain = 0
KWOS 071455Z 26013KT 21/01 A30 RMK A01 T02090011  RH  027%=      5-min Rain = 0
KWOS 071500Z 27013KT 21/00 A30 RMK A01 T02130004  RH  025%=      5-min Rain = 0
KWOS 071505Z 28012KT 22/00 A30 RMK A01 T02160003  RH  025%=      5-min Rain = 0
KWOS 071510Z 28013KT 22/M01 A30 RMK A01 T02181010  RH  022%=      5-min Rain = 0
KWOS 071515Z 28013KT 22/M01 A30 RMK A01 T02201011  RH  022%=      5-min Rain = 0
KWOS 071520Z 29013KT 22/M02 A3001 RMK A01 T02231016  RH  020%=      5-min Rain = 0
KWOS 071525Z 29013KT 23/M02 A3001 RMK A01 T02251017  RH  020%=      5-min Rain = 0
KWOS 071530Z 28013KT 23/M02 A3001 RMK A01 T02261016  RH  020%=      5-min Rain = 0
KWOS 071535Z 28012KT 23/M02 A3001 RMK A01 T02281016  RH  020%=      5-min Rain = 0
KWOS 071540Z 29013KT 23/M02 A3001 RMK A01 T02311020  RH  019%=      5-min Rain = 0
KWOS 071545Z 29013KT 23/M03 A3001 RMK A01 T02331025  RH  018%=      5-min Rain = 0
KWOS 071550Z 29013G19KT 24/M02 A3001 RMK A01 T02371024  RH  018%=      5-min Rain = 0
KWOS 071555Z 29014KT 24/M03 A3001 RMK A01 T02381029  RH  017%=      5-min Rain = 0
KWOS 071600Z 29014G19KT 24/M03 A3001 RMK A01 T02411034  RH  016%=      5-min Rain = 0
KWOS 071605Z 30014KT 24/M04 A3001 RMK A01 T02431039  RH  015%=      5-min Rain = 0
KWOS 071610Z 30015KT 25/M04 A3001 RMK A01 T02471041  RH  015%=      5-min Rain = 0
KWOS 071615Z 30015KT 25/M05 A3001 RMK A01 T02461048  RH  014%=      5-min Rain = 0
KWOS 071620Z 30015KT 25/M04 A3001 RMK A01 T02481044  RH  014%=      5-min Rain = 0
KWOS 071625Z 30014G19KT 25/M04 A3001 RMK A01 T02501043  RH  014%=      5-min Rain = 0
KWOS 071630Z 31013KT 25/M05 A3001 RMK A01 T02501047  RH  014%=      5-min Rain = 0
KWOS 071635Z 31014G20KT 25/M05 A3001 RMK A01 T02511046  RH  014%=      5-min Rain = 0
KWOS 071640Z 32012G17KT 25/M05 A3001 RMK A01 T02511047  RH  014%=      5-min Rain = 0
KWOS 071645Z 31012G18KT 25/M05 A3001 RMK A01 T02531045  RH  014%=      5-min Rain = 0
KWOS 071650Z 32011G16KT 26/M05 A3001 RMK A01 T02571046  RH  013%=      5-min Rain = 0
KWOS 071655Z 32012KT 26/M05 A3001 RMK A01 T02571048  RH  013%=      5-min Rain = 0
KWOS 071700Z 31011G16KT 26/M05 A3001 RMK A01 T02621048  RH  013%=      5-min Rain = 0
KWOS 071705Z 32011G16KT 26/M05 A3001 RMK A01 T02611050  RH  013%=      5-min Rain = 0
KWOS 071710Z 30011G17KT 26/M05 A3001 RMK A01 T02601048  RH  013%=      5-min Rain = 0
KWOS 071715Z 31009G16KT 26/M05 A3001 RMK A01 T02621047  RH  013%=      5-min Rain = 0
KWOS 071720Z 32010G15KT 26/M05 A3001 RMK A01 T02621046  RH  013%=      5-min Rain = 0
KWOS 071725Z 31010G15KT 27/M05 A30 RMK A01 T02661046  RH  013%=      5-min Rain = 0
KWOS 071730Z 31008G13KT 27/M05 A30 RMK A01 T02661050  RH  012%=      5-min Rain = 0
KWOS 071735Z 31010G17KT 27/M05 A30 RMK A01 T02661052  RH  012%=      5-min Rain = 0
KWOS 071740Z 31007G13KT 27/M05 A30 RMK A01 T02661054  RH  012%=      5-min Rain = 0
KWOS 071745Z 31010G16KT 27/M05 A30 RMK A01 T02731048  RH  012%=      5-min Rain = 0
KWOS 071750Z 31007KT 27/M05 A2999 RMK A01 T02731048  RH  012%=      5-min Rain = 0
KWOS 071755Z 29008KT 27/M06 A2999 RMK A01 T02741059  RH  011%=      5-min Rain = 0
KWOS 071800Z 28008KT 28/M06 A2999 RMK A01 T02761061  RH  011%=      5-min Rain = 0
KWOS 071805Z 31006KT 27/M06 A2999 RMK A01 T02721057  RH  011%=      5-min Rain = 0
KWOS 071810Z 29009G15KT 28/M06 A2998 RMK A01 T02831055  RH  011%=      5-min Rain = 0
KWOS 071815Z 30010KT 28/M08 A2998 RMK A01 T02801076  RH  009%=      5-min Rain = 0
KWOS 071820Z 30010G16KT 28/M07 A2998 RMK A01 T02801072  RH  009%=      5-min Rain = 0
KWOS 071825Z 27009G17KT 28/M08 A2998 RMK A01 T02801076  RH  009%=      5-min Rain = 0
KWOS 071830Z 27008G16KT 28/M08 A2998 RMK A01 T02821083  RH  009%=      5-min Rain = 0
KWOS 071835Z 26010KT 28/M08 A2998 RMK A01 T02841078  RH  009%=      5-min Rain = 0
KWOS 071840Z 24007G14KT 28/M08 A2998 RMK A01 T02811082  RH  009%=      5-min Rain = 0
KWOS 071845Z 28011G17KT 29/M08 A2998 RMK A01 T02851080  RH  009%=      5-min Rain = 0
KWOS 071850Z 28009G16KT 29/M08 A2998 RMK A01 T02851077  RH  009%=      5-min Rain = 0
KWOS 071855Z 29009G17KT 28/M08 A2997 RMK A01 T02831079  RH  009%=      5-min Rain = 0
KWOS 071900Z 29009G15KT 28/M08 A2997 RMK A01 T02831076  RH  009%=      5-min Rain = 0
KWOS 071905Z 28011G16KT 29/M08 A2997 RMK A01 T02851078  RH  009%=      5-min Rain = 0
KWOS 071910Z 29010G16KT 29/M08 A2997 RMK A01 T02861078  RH  009%=      5-min Rain = 0
KWOS 071915Z 29013KT 29/M08 A2997 RMK A01 T02911078  RH  008%=      5-min Rain = 0
KWOS 071920Z 27011G16KT 29/M08 A2997 RMK A01 T02901078  RH  008%=      5-min Rain = 0
KWOS 071925Z 29009G15KT 29/M08 A2997 RMK A01 T02931076  RH  008%=      5-min Rain = 0
KWOS 071930Z 28009G16KT 29/M08 A2996 RMK A01 T02931075  RH  009%=      5-min Rain = 0
KWOS 071935Z 29012G18KT 29/M08 A2996 RMK A01 T02921081  RH  008%=      5-min Rain = 0
KWOS 071940Z 30013G18KT 29/M08 A2996 RMK A01 T02911077  RH  008%=      5-min Rain = 0
KWOS 071945Z 30009G16KT 29/M08 A2996 RMK A01 T02891079  RH  009%=      5-min Rain = 0
KWOS 071950Z 28006KT 29/M08 A2996 RMK A01 T02881078  RH  009%=      5-min Rain = 0
KWOS 071955Z 30011G16KT 29/M08 A2995 RMK A01 T02931078  RH  008%=      5-min Rain = 0
KWOS 072000Z 26011KT 30/M08 A2995 RMK A01 T02971077  RH  008%=      5-min Rain = 0
KWOS 072005Z 26010G15KT 30/M08 A2995 RMK A01 T02981078  RH  008%=      5-min Rain = 0
KWOS 072010Z 28010G17KT 29/M08 A2995 RMK A01 T02941076  RH  008%=      5-min Rain = 0
KWOS 072015Z 26011KT 30/M08 A2995 RMK A01 T02991077  RH  008%=      5-min Rain = 0
KWOS 072020Z 26011G20KT 30/M08 A2994 RMK A01 T02971076  RH  008%=      5-min Rain = 0
KWOS 072025Z 23009KT 29/M08 A2994 RMK A01 T02921079  RH  008%=      5-min Rain = 0
KWOS 072030Z 26011G19KT 29/M08 A2994 RMK A01 T02931076  RH  008%=      5-min Rain = 0
KWOS 072035Z 28015G25KT 30/M07 A2993 RMK A01 T02971072  RH  009%=      5-min Rain = 0
KWOS 072040Z 25013G18KT 30/M07 A2993 RMK A01 T02981074  RH  008%=      5-min Rain = 0
KWOS 072045Z 23010G15KT 30/M08 A2993 RMK A01 T02951077  RH  008%=      5-min Rain = 0
KWOS 072050Z 26014G19KT 30/M08 A2993 RMK A01 T02981075  RH  008%=      5-min Rain = 0
KWOS 072055Z 25015KT 30/M08 A2993 RMK A01 T03001076  RH  008%=      5-min Rain = 0
KWOS 072100Z 24011G16KT 30/M07 A2992 RMK A01 T02971074  RH  008%=      5-min Rain = 0
KWOS 072105Z 21010KT 30/M07 A2992 RMK A01 T02961073  RH  009%=      5-min Rain = 0
KWOS 072110Z 25009KT 30/M07 A2992 RMK A01 T03001070  RH  009%=      5-min Rain = 0
KWOS 072115Z 26011G16KT 30/M07 A2992 RMK A01 T02991072  RH  008%=      5-min Rain = 0
KWOS 072120Z 26013G19KT 30/M07 A2992 RMK A01 T02991072  RH  008%=      5-min Rain = 0
KWOS 072125Z 25008G13KT 29/M07 A2992 RMK A01 T02941073  RH  009%=      5-min Rain = 0
KWOS 072130Z 26014G21KT 30/M07 A2991 RMK A01 T02991070  RH  009%=      5-min Rain = 0
KWOS 072135Z 25014G20KT 30/M07 A2991 RMK A01 T02991074  RH  008%=      5-min Rain = 0
KWOS 072140Z 23008KT 30/M07 A2991 RMK A01 T02951074  RH  009%=      5-min Rain = 0
KWOS 072145Z 28007KT 30/M08 A2991 RMK A01 T02951075  RH  008%=      5-min Rain = 0
KWOS 072150Z 29012G17KT 30/M07 A2991 RMK A01 T02971071  RH  009%=      5-min Rain = 0
KWOS 072155Z 30006G16KT 29/M07 A2991 RMK A01 T02941073  RH  009%=      5-min Rain = 0
KWOS 072200Z 29007G14KT 30/M07 A2991 RMK A01 T02971070  RH  009%=      5-min Rain = 0
KWOS 072205Z 27010G15KT 30/M07 A2991 RMK A01 T03011070  RH  009%=      5-min Rain = 0
KWOS 072210Z 26012KT 30/M07 A2991 RMK A01 T02981071  RH  009%=      5-min Rain = 0
KWOS 072215Z 24012G17KT 30/M07 A2991 RMK A01 T02991071  RH  009%=      5-min Rain = 0
KWOS 072220Z 25011G16KT 30/M07 A2991 RMK A01 T03001070  RH  009%=      5-min Rain = 0
KWOS 072225Z 28010KT 30/M07 A2991 RMK A01 T02961071  RH  009%=      5-min Rain = 0
KWOS 072230Z 27011G16KT 30/M07 A2991 RMK A01 T02971070  RH  009%=      5-min Rain = 0
KWOS 072235Z 28005G10KT 29/M07 A299 RMK A01 T02921073  RH  009%=      5-min Rain = 0
KWOS 072240Z 27007G15KT 30/M07 A299 RMK A01 T02951069  RH  009%=      5-min Rain = 0
KWOS 072245Z 27012G17KT 30/M07 A2991 RMK A01 T02961072  RH  009%=      5-min Rain = 0
KWOS 072250Z 28009G14KT 29/M07 A2991 RMK A01 T02921072  RH  009%=      5-min Rain = 0
KWOS 072255Z 30012G19KT 29/M07 A2991 RMK A01 T02931072  RH  009%=      5-min Rain = 0
KWOS 072300Z 29007G13KT 29/M07 A2991 RMK A01 T02881074  RH  009%=      5-min Rain = 0
KWOS 072305Z 29010KT 29/M07 A2991 RMK A01 T02911071  RH  009%=      5-min Rain = 0
KWOS 072310Z 27011G18KT 29/M07 A2991 RMK A01 T02921073  RH  009%=      5-min Rain = 0
KWOS 072315Z 27013G18KT 29/M07 A2991 RMK A01 T02911072  RH  009%=      5-min Rain = 0
KWOS 072320Z 26011KT 29/M07 A2991 RMK A01 T02901074  RH  009%=      5-min Rain = 0
KWOS 072325Z 27009KT 29/M07 A2991 RMK A01 T02911072  RH  009%=      5-min Rain = 0
KWOS 072330Z 27012KT 29/M07 A2991 RMK A01 T02901071  RH  009%=      5-min Rain = 0
KWOS 072335Z 27013G18KT 29/M07 A2991 RMK A01 T02911073  RH  009%=      5-min Rain = 0
KWOS 072340Z 27011G17KT 29/M07 A2991 RMK A01 T02871073  RH  009%=      5-min Rain = 0
KWOS 072345Z 27012KT 29/M07 A2991 RMK A01 T02871068  RH  009%=      5-min Rain = 0
KWOS 072350Z 25013KT 29/M07 A2991 RMK A01 T02861070  RH  009%=      5-min Rain = 0
KWOS 072355Z 27011KT 28/M07 A2991 RMK A01 T02841071  RH  009%=      5-min Rain = 0
KWOS 080000Z 27009KT 29/M07 A2991 RMK A01 T02851068  RH  009%=      5-min Rain = 0
KWOS 080005Z 26010KT 28/M07 A2991 RMK A01 T02841070  RH  009%=      5-min Rain = 0
KWOS 080010Z 25016KT 28/M07 A2991 RMK A01 T02821070  RH  010%=      5-min Rain = 0
KWOS 080015Z 25016KT 28/M07 A2991 RMK A01 T02791070  RH  010%=      5-min Rain = 0
KWOS 080020Z 25014KT 28/M07 A2991 RMK A01 T02761071  RH  010%=      5-min Rain = 0
KWOS 080025Z 26014G20KT 28/M07 A2991 RMK A01 T02761069  RH  010%=      5-min Rain = 0
KWOS 080030Z 25014KT 27/M07 A2991 RMK A01 T02711071  RH  010%=      5-min Rain = 0
KWOS 080035Z 24014KT 27/M07 A2991 RMK A01 T02691070  RH  010%=      5-min Rain = 0
KWOS 080040Z 24012KT 27/M07 A2991 RMK A01 T02681069  RH  010%=      5-min Rain = 0
KWOS 080045Z 25012KT 26/M07 A2992 RMK A01 T02641068  RH  011%=      5-min Rain = 0
KWOS 080050Z 24012KT 26/M07 A2992 RMK A01 T02611067  RH  011%=      5-min Rain = 0
KWOS 080055Z 24012KT 26/M07 A2992 RMK A01 T02571067  RH  011%=      5-min Rain = 0
KWOS 080100Z 24011KT 26/M07 A2992 RMK A01 T02551068  RH  011%=      5-min Rain = 0
KWOS 080105Z 24010KT 25/M07 A2992 RMK A01 T02511068  RH  012%=      5-min Rain = 0
KWOS 080110Z 24009KT 25/M07 A2992 RMK A01 T02461067  RH  012%=      5-min Rain = 0
KWOS 080115Z 24009KT 24/M07 A2993 RMK A01 T02401067  RH  012%=      5-min Rain = 0
KWOS 080120Z 24009KT 24/M07 A2993 RMK A01 T02361066  RH  013%=      5-min Rain = 0
KWOS 080125Z 23009KT 23/M06 A2993 RMK A01 T02331064  RH  013%=      5-min Rain = 0
KWOS 080130Z 23008KT 23/M06 A2993 RMK A01 T02281064  RH  014%=      5-min Rain = 0
KWOS 080135Z 23009KT 22/M06 A2993 RMK A01 T02221062  RH  014%=      5-min Rain = 0
KWOS 080140Z 23009KT 22/M06 A2993 RMK A01 T02191059  RH  015%=      5-min Rain = 0
KWOS 080145Z 23009KT 22/M06 A2993 RMK A01 T02151059  RH  015%=      5-min Rain = 0
KWOS 080150Z 23009KT 21/M06 A2994 RMK A01 T02091060  RH  016%=      5-min Rain = 0
KWOS 080155Z 23009KT 21/M06 A2994 RMK A01 T02111059  RH  016%=      5-min Rain = 0
KWOS 080200Z 23009KT 21/M06 A2994 RMK A01 T02101058  RH  016%=      5-min Rain = 0
KWOS 080205Z 23010KT 21/M06 A2994 RMK A01 T02091059  RH  016%=      5-min Rain = 0
KWOS 080210Z 23010KT 21/M06 A2995 RMK A01 T02061058  RH  016%=      5-min Rain = 0
KWOS 080215Z 23009KT 20/M06 A2995 RMK A01 T02031057  RH  017%=      5-min Rain = 0
KWOS 080220Z 23009KT 20/M06 A2995 RMK A01 T02001057  RH  017%=      5-min Rain = 0
KWOS 080225Z 23009KT 20/M06 A2995 RMK A01 T01981057  RH  017%=      5-min Rain = 0
KWOS 080230Z 23009KT 20/M06 A2996 RMK A01 T01951056  RH  018%=      5-min Rain = 0
KWOS 080235Z 23009KT 19/M06 A2996 RMK A01 T01911055  RH  018%=      5-min Rain = 0
KWOS 080240Z 23009KT 19/M05 A2996 RMK A01 T01901054  RH  019%=      5-min Rain = 0
KWOS 080245Z 23009KT 19/M05 A2996 RMK A01 T01901054  RH  019%=      5-min Rain = 0
KWOS 080250Z 23009KT 19/M05 A2996 RMK A01 T01881053  RH  019%=      5-min Rain = 0
KWOS 080255Z 24009KT 19/M05 A2997 RMK A01 T01851054  RH  019%=      5-min Rain = 0
KWOS 080300Z 24009KT 18/M05 A2997 RMK A01 T01811054  RH  020%=      5-min Rain = 0
KWOS 080305Z 24009KT 18/M05 A2997 RMK A01 T01801052  RH  020%=      5-min Rain = 0
KWOS 080310Z 24009KT 18/M05 A2997 RMK A01 T01791052  RH  020%=      5-min Rain = 0
KWOS 080315Z 24009KT 18/M05 A2997 RMK A01 T01791051  RH  021%=      5-min Rain = 0
KWOS 080320Z 23008KT 18/M05 A2997 RMK A01 T01781050  RH  021%=      5-min Rain = 0
KWOS 080325Z 23008KT 18/M05 A2997 RMK A01 T01781049  RH  021%=      5-min Rain = 0
KWOS 080330Z 24008KT 18/M05 A2997 RMK A01 T01781048  RH  021%=      5-min Rain = 0
KWOS 080335Z 24008KT 18/M05 A2997 RMK A01 T01761048  RH  021%=      5-min Rain = 0
KWOS 080340Z 24008KT 17/M05 A2997 RMK A01 T01731048  RH  022%=      5-min Rain = 0
KWOS 080345Z 24007KT 17/M05 A2997 RMK A01 T01721047  RH  022%=      5-min Rain = 0
KWOS 080350Z 24007KT 17/M05 A2997 RMK A01 T01711047  RH  022%=      5-min Rain = 0
KWOS 080355Z 26006KT 17/M05 A2997 RMK A01 T01711047  RH  022%=      5-min Rain = 0
KWOS 080400Z 25006KT 17/M05 A2997 RMK A01 T01701045  RH  023%=      5-min Rain = 0
KWOS 080405Z 25007KT 17/M05 A2997 RMK A01 T01691045  RH  023%=      5-min Rain = 0
KWOS 080410Z 25007KT 17/M05 A2997 RMK A01 T01691045  RH  023%=      5-min Rain = 0
KWOS 080415Z 25007KT 17/M05 A2997 RMK A01 T01681045  RH  023%=      5-min Rain = 0
KWOS 080420Z 25007KT 17/M05 A2997 RMK A01 T01661046  RH  023%=      5-min Rain = 0
KWOS 080425Z 25007KT 17/M05 A2997 RMK A01 T01661047  RH  023%=      5-min Rain = 0
KWOS 080430Z 25007KT 17/M05 A2997 RMK A01 T01651046  RH  023%=      5-min Rain = 0
KWOS 080435Z 25007KT 17/M04 A2997 RMK A01 T01651044  RH  024%=      5-min Rain = 0
KWOS 080440Z 25008KT 17/M05 A2997 RMK A01 T01651045  RH  023%=      5-min Rain = 0
KWOS 080445Z 24007KT 16/M05 A2997 RMK A01 T01641045  RH  024%=      5-min Rain = 0
KWOS 080450Z 24006KT 16/M04 A2997 RMK A01 T01621042  RH  024%=      5-min Rain = 0
KWOS 080455Z 24006KT 16/M04 A2997 RMK A01 T01601044  RH  024%=      5-min Rain = 0

Page generated in 0.0322 seconds.